Stations météo

réclame
Mon MeteoGroup
Dobbiaco, Italie (16033): Température de l'air & dewpoint: 13.07.2018 21:00:00 - 19.07.2018 21:00:00 (CEST)Dobbiaco, Italie (16033): Vitesse du vent: 13.07.2018 21:00:00 - 19.07.2018 21:00:00 (CEST)Dobbiaco, Italie (16033): Direction du vent: 13.07.2018 21:00:00 - 19.07.2018 21:00:00 (CEST)Dobbiaco, Italie (16033): visibility: 13.07.2018 21:00:00 - 19.07.2018 21:00:00 (CEST)
Date & Time tt [°C] td [°C] ff [km/h] ff [knt] dd vv [km]
19.07.2018 21:00:00 - - - - - -
19.07.2018 20:00:00 23,6 4,5 8 4 E 25
19.07.2018 19:00:00 26,0 2,0 - - - 10
19.07.2018 18:00:00 26,0 -2,0 - - - 10
19.07.2018 17:00:00 26,0 -0,9 4 2 W 25
19.07.2018 16:00:00 25,0 -1,0 - - - 10
19.07.2018 15:00:00 25,0 -1,0 - - - 10
19.07.2018 14:00:00 24,4 -1,4 0 0 N 25
19.07.2018 13:00:00 23,0 2,0 - - - 10
19.07.2018 12:00:00 22,0 2,0 - - - 10
19.07.2018 11:00:00 19,8 4,7 4 2 W 25
19.07.2018 10:00:00 18,0 7,0 - - - 10
19.07.2018 09:00:00 16,0 8,0 - - - 10
19.07.2018 08:00:00 12,8 8,3 0 0 N 20
19.07.2018 07:00:00 - - - - - -
19.07.2018 06:00:00 - - - - - -
19.07.2018 05:00:00 - - - - - -
19.07.2018 04:00:00 - - - - - -
19.07.2018 03:00:00 - - - - - -
19.07.2018 02:00:00 - - - - - -
19.07.2018 01:00:00 - - - - - -
19.07.2018 00:00:00 - - - - - -
18.07.2018 23:00:00 - - - - - -
18.07.2018 22:00:00 - - - - - -
18.07.2018 21:00:00 - - - - - -
18.07.2018 20:00:00 23,0 -1,1 0 0 N 25
18.07.2018 19:00:00 24,0 -1,0 - - - 10
18.07.2018 18:00:00 24,0 0,0 - - - 10
18.07.2018 17:00:00 24,4 0,7 0 0 N 25
18.07.2018 16:00:00 24,0 2,0 - - - 10
18.07.2018 15:00:00 23,0 2,0 - - - 10
18.07.2018 14:00:00 22,4 2,0 4 2 W 25
18.07.2018 13:00:00 22,0 3,0 - - - 10
18.07.2018 12:00:00 21,0 5,0 - - - 10
18.07.2018 11:00:00 19,6 7,4 4 2 W 25
18.07.2018 10:00:00 17,0 9,0 - - - 10
18.07.2018 09:00:00 14,0 8,0 - - - 10
18.07.2018 08:00:00 12,8 8,5 0 0 N 25
18.07.2018 07:00:00 - - - - - -
18.07.2018 06:00:00 - - - - - -
18.07.2018 05:00:00 - - - - - -
18.07.2018 04:00:00 - - - - - -
18.07.2018 03:00:00 - - - - - -
18.07.2018 02:00:00 - - - - - -
18.07.2018 01:00:00 - - - - - -
18.07.2018 00:00:00 - - - - - -
17.07.2018 23:00:00 - - - - - -
17.07.2018 22:00:00 - - - - - -
17.07.2018 21:00:00 - - - - - -
17.07.2018 20:00:00 19,4 5,1 9 5 SSW 28
17.07.2018 19:00:00 20,0 4,0 5 3 - 10
17.07.2018 18:00:00 20,0 4,0 8 4 - 10
17.07.2018 17:00:00 20,2 5,1 5 3 - 10
17.07.2018 16:00:00 22,0 4,0 9 5 - 10
17.07.2018 15:00:00 22,0 3,0 11 6 - 10
17.07.2018 14:00:00 21,4 4,1 5 3 N 28
17.07.2018 13:00:00 21,0 7,0 9 5 - 10
17.07.2018 12:00:00 20,0 6,0 11 6 - 10
17.07.2018 11:00:00 18,8 9,3 8 4 W 10
17.07.2018 10:00:00 19,0 11,0 9 5 - 10
17.07.2018 09:00:00 17,0 12,0 5 3 - 10
17.07.2018 08:00:00 15,3 11,9 8 4 WNW 15
17.07.2018 07:00:00 - - - - - -
17.07.2018 06:00:00 - - - - - -
17.07.2018 05:00:00 - - - - - -
17.07.2018 04:00:00 - - - - - -
17.07.2018 03:00:00 - - - - - -
17.07.2018 02:00:00 - - - - - -
17.07.2018 01:00:00 - - - - - -
17.07.2018 00:00:00 - - - - - -
16.07.2018 23:00:00 - - - - - -
16.07.2018 22:00:00 - - - - - -
16.07.2018 21:00:00 - - - - - -
16.07.2018 20:00:00 17,6 11,4 18 10 E 15
16.07.2018 19:00:00 19,0 12,0 16 9 - 10
16.07.2018 18:00:00 19,0 12,0 18 10 - 10
16.07.2018 17:00:00 19,8 11,8 18 10 ENE 25
16.07.2018 16:00:00 25,0 11,0 18 10 - 10
16.07.2018 15:00:00 24,0 5,0 8 4 W 10
16.07.2018 14:00:00 22,6 4,2 5 3 SSW 28
16.07.2018 13:00:00 22,0 14,0 5 3 - 10
16.07.2018 12:00:00 19,0 10,0 - - - 10
16.07.2018 11:00:00 18,3 11,4 0 0 N 20
16.07.2018 10:00:00 18,0 13,0 - - - 10
16.07.2018 09:00:00 15,0 12,0 - - - 10
16.07.2018 08:00:00 13,8 12,0 4 2 E 10
16.07.2018 07:00:00 - - - - - -
16.07.2018 06:00:00 - - - - - -
16.07.2018 05:00:00 - - - - - -
16.07.2018 04:00:00 - - - - - -
16.07.2018 03:00:00 - - - - - -
16.07.2018 02:00:00 - - - - - -
16.07.2018 01:00:00 - - - - - -
16.07.2018 00:00:00 - - - - - -
15.07.2018 23:00:00 - - - - - -
15.07.2018 22:00:00 - - - - - -
15.07.2018 21:00:00 - - - - - -
15.07.2018 20:00:00 19,4 9,3 13 7 E 25
15.07.2018 19:00:00 21,0 8,0 9 5 - 10
15.07.2018 18:00:00 23,0 8,0 - - - 10
15.07.2018 17:00:00 22,4 7,4 0 0 N 25
15.07.2018 16:00:00 22,0 7,0 - - - 10
15.07.2018 15:00:00 22,0 6,0 - - - 10
15.07.2018 14:00:00 21,2 8,5 0 0 N 25
15.07.2018 13:00:00 19,0 7,0 - - - 10
15.07.2018 12:00:00 18,0 10,0 - - - 10
15.07.2018 11:00:00 16,2 10,7 0 0 N 25
15.07.2018 10:00:00 15,0 13,0 - - - 10
15.07.2018 09:00:00 14,0 12,0 - - - 10
15.07.2018 08:00:00 13,6 12,0 0 0 N 15
15.07.2018 07:00:00 - - - - - -
15.07.2018 06:00:00 - - - - - -
15.07.2018 05:00:00 - - - - - -
15.07.2018 04:00:00 - - - - - -
15.07.2018 03:00:00 - - - - - -
15.07.2018 02:00:00 - - - - - -
15.07.2018 01:00:00 - - - - - -
15.07.2018 00:00:00 - - - - - -
14.07.2018 23:00:00 - - - - - -
14.07.2018 22:00:00 - - - - - -
14.07.2018 21:00:00 - - - - - -
14.07.2018 20:00:00 20,0 13,0 0 0 N 8
14.07.2018 19:00:00 22,0 9,0 15 8 - 10
14.07.2018 18:00:00 24,0 5,0 5 3 - 10
14.07.2018 17:00:00 24,2 4,6 0 0 N 25
14.07.2018 16:00:00 24,0 6,0 5 3 - 10
14.07.2018 15:00:00 24,0 6,0 5 3 - 10
14.07.2018 14:00:00 23,2 5,6 0 0 N 25
14.07.2018 13:00:00 23,0 5,0 - - - 10
14.07.2018 12:00:00 21,0 8,0 - - - 10
14.07.2018 11:00:00 20,0 9,9 0 0 N 25
14.07.2018 10:00:00 19,0 11,0 - - - 10
14.07.2018 09:00:00 17,0 11,0 5 3 - 10
14.07.2018 08:00:00 15,0 11,6 0 0 N 15
14.07.2018 07:00:00 - - - - - -
14.07.2018 06:00:00 - - - - - -
14.07.2018 05:00:00 - - - - - -
14.07.2018 04:00:00 - - - - - -
14.07.2018 03:00:00 - - - - - -
14.07.2018 02:00:00 - - - - - -
14.07.2018 01:00:00 - - - - - -
14.07.2018 00:00:00 - - - - - -
13.07.2018 23:00:00 - - - - - -
13.07.2018 22:00:00 - - - - - -
13.07.2018 21:00:00 - - - - - -

tt = Température de l'air
td = dewpoint
ff = Vitesse du vent
dd = Direction du vent
vv = visibility

stations d'obs. à proximité